createdAt,value
2023-05-11T00:01:45.056Z,100255.66
2023-05-11T00:04:11.723Z,100258.97
2023-05-11T00:06:38.468Z,100262.09
2023-05-11T00:09:05.369Z,100264.50
2023-05-11T00:11:32.012Z,100261.16
2023-05-11T00:13:58.667Z,100256.44
2023-05-11T00:16:25.358Z,100265.25
2023-05-11T00:18:52.062Z,100258.69
2023-05-11T00:21:18.713Z,100252.50
2023-05-11T00:23:45.526Z,100260.28
2023-05-11T00:26:12.224Z,100247.34
2023-05-11T00:28:38.878Z,100257.75
2023-05-11T00:31:05.649Z,100251.59
2023-05-11T00:33:32.412Z,100244.84
2023-05-11T00:35:59.045Z,100253.63
2023-05-11T00:38:25.776Z,100246.38
2023-05-11T00:40:52.545Z,100242.88
2023-05-11T00:43:19.251Z,100249.34
2023-05-11T00:45:48.271Z,100252.47
2023-05-11T00:48:15.576Z,100247.19
2023-05-11T00:50:43.063Z,100236.13
2023-05-11T00:53:09.812Z,100236.53
2023-05-11T00:55:36.540Z,100236.91
2023-05-11T00:58:05.758Z,100233.63
2023-05-11T01:00:32.490Z,100237.50
2023-05-11T01:03:00.272Z,100232.22
2023-05-11T01:05:32.287Z,100234.88
2023-05-11T01:08:18.891Z,100238.62
2023-05-11T01:10:49.226Z,100218.53
2023-05-11T01:13:31.166Z,100218.16
2023-05-11T01:15:58.227Z,100238.53
2023-05-11T01:18:34.141Z,100233.00
2023-05-11T01:21:01.701Z,100222.50
2023-05-11T01:23:34.514Z,100223.78
2023-05-11T01:26:29.434Z,100221.88
2023-05-11T01:29:03.552Z,100221.62
2023-05-11T01:31:34.243Z,100228.09
2023-05-11T01:34:04.073Z,100228.44
2023-05-11T01:36:35.175Z,100233.44
2023-05-11T01:39:04.926Z,100229.88
2023-05-11T01:41:33.513Z,100230.50
2023-05-11T01:44:03.334Z,100221.28
2023-05-11T01:46:32.296Z,100231.16
2023-05-11T01:49:00.961Z,100226.94
2023-05-11T01:51:29.232Z,100222.09
2023-05-11T01:53:57.006Z,100227.78
2023-05-11T01:56:25.229Z,100217.00
2023-05-11T01:58:52.231Z,100214.69
2023-05-11T02:01:19.825Z,100208.12
2023-05-11T02:03:47.773Z,100215.34
2023-05-11T02:06:15.754Z,100221.16
2023-05-11T02:08:43.199Z,100210.13
2023-05-11T02:11:11.439Z,100203.41
2023-05-11T02:13:39.468Z,100211.66
2023-05-11T02:16:06.872Z,100215.06
2023-05-11T02:18:34.662Z,100220.66
2023-05-11T02:21:01.972Z,100211.22
2023-05-11T02:23:31.255Z,100207.59
2023-05-11T02:25:58.786Z,100208.00
2023-05-11T02:28:25.553Z,100204.62
2023-05-11T02:30:54.442Z,100206.87
2023-05-11T02:33:25.704Z,100208.91
2023-05-11T02:35:53.471Z,100200.16
2023-05-11T02:38:20.295Z,100205.28
2023-05-11T02:40:49.503Z,100204.78
2023-05-11T02:43:20.720Z,100204.22
2023-05-11T02:45:49.565Z,100202.53
2023-05-11T02:48:21.590Z,100209.34
2023-05-11T02:50:49.200Z,100209.44
2023-05-11T02:53:17.462Z,100215.28
2023-05-11T02:55:44.327Z,100205.66
2023-05-11T02:58:11.505Z,100217.22
2023-05-11T03:00:38.958Z,100212.81
2023-05-11T03:03:05.740Z,100206.66
2023-05-11T03:05:32.483Z,100206.59
2023-05-11T03:08:00.094Z,100204.16
2023-05-11T03:10:28.178Z,100217.72
2023-05-11T03:12:55.173Z,100201.31
2023-05-11T03:15:22.595Z,100208.97
2023-05-11T03:17:53.419Z,100202.72
2023-05-11T03:20:21.263Z,100206.16
2023-05-11T03:22:48.892Z,100200.44
2023-05-11T03:25:16.489Z,100201.72
2023-05-11T03:27:43.913Z,100196.03
2023-05-11T03:30:12.834Z,100195.34
2023-05-11T03:32:39.700Z,100198.41
2023-05-11T03:35:06.830Z,100207.63
2023-05-11T03:37:33.486Z,100199.53
2023-05-11T03:40:01.435Z,100198.94
2023-05-11T03:42:29.443Z,100198.53
2023-05-11T03:44:58.679Z,100190.63
2023-05-11T03:47:29.008Z,100175.91
2023-05-11T03:49:56.763Z,100193.37
2023-05-11T03:52:23.704Z,100179.13
2023-05-11T03:54:50.609Z,100175.69
2023-05-11T03:57:17.329Z,100180.38
2023-05-11T03:59:44.168Z,100177.13
2023-05-11T04:02:11.004Z,100190.66
2023-05-11T04:04:37.757Z,100179.63
2023-05-11T04:07:04.432Z,100185.69
2023-05-11T04:09:31.173Z,100182.47
2023-05-11T04:11:57.912Z,100178.50
2023-05-11T04:14:24.571Z,100175.25
2023-05-11T04:16:51.232Z,100176.44
2023-05-11T04:19:17.967Z,100180.06
2023-05-11T04:21:44.925Z,100184.31
2023-05-11T04:24:11.552Z,100185.66
2023-05-11T04:26:38.240Z,100185.97
2023-05-11T04:29:05.260Z,100190.34
2023-05-11T04:31:32.325Z,100185.53
2023-05-11T04:33:59.010Z,100188.88
2023-05-11T04:36:25.944Z,100194.19
2023-05-11T04:38:53.468Z,100201.66
2023-05-11T04:41:20.168Z,100205.53
2023-05-11T04:43:46.786Z,100198.69
2023-05-11T04:46:13.625Z,100208.03
2023-05-11T04:48:40.269Z,100196.84
2023-05-11T04:51:07.162Z,100200.94
2023-05-11T04:53:33.865Z,100205.75
2023-05-11T04:56:00.523Z,100210.78
2023-05-11T04:58:27.258Z,100214.78
2023-05-11T05:00:53.891Z,100216.31
2023-05-11T05:03:20.680Z,100209.50
2023-05-11T05:05:47.373Z,100216.22
2023-05-11T05:08:14.452Z,100209.84
2023-05-11T05:10:41.105Z,100203.88
2023-05-11T05:13:07.821Z,100204.78
2023-05-11T05:15:34.513Z,100209.84
2023-05-11T05:18:01.288Z,100215.53
2023-05-11T05:20:29.044Z,100218.41
2023-05-11T05:22:55.723Z,100211.41
2023-05-11T05:25:22.528Z,100221.38
2023-05-11T05:27:49.202Z,100230.09
2023-05-11T05:30:16.014Z,100220.69
2023-05-11T05:32:42.973Z,100219.22
2023-05-11T05:35:09.982Z,100217.03
2023-05-11T05:37:37.744Z,100213.25
2023-05-11T05:40:05.412Z,100221.91
2023-05-11T05:42:32.657Z,100231.34
2023-05-11T05:44:59.429Z,100224.41
2023-05-11T05:47:26.181Z,100232.50
2023-05-11T05:49:52.870Z,100222.09
2023-05-11T05:52:19.586Z,100230.72
2023-05-11T05:54:46.395Z,100239.19
2023-05-11T05:57:15.519Z,100230.75
2023-05-11T05:59:42.522Z,100224.56
2023-05-11T06:02:09.459Z,100221.84
2023-05-11T06:04:38.417Z,100230.41
2023-05-11T06:07:05.212Z,100228.91
2023-05-11T06:09:31.868Z,100229.63
2023-05-11T06:11:58.618Z,100222.66
2023-05-11T06:14:25.367Z,100227.13
2023-05-11T06:16:52.627Z,100224.66
2023-05-11T06:19:19.589Z,100221.59
2023-05-11T06:21:46.777Z,100231.59
2023-05-11T06:24:13.515Z,100246.00
2023-05-11T06:26:41.211Z,100227.00
2023-05-11T06:29:08.185Z,100229.72
2023-05-11T06:31:34.985Z,100223.91
2023-05-11T06:34:01.677Z,100241.16
2023-05-11T06:36:28.401Z,100248.31
2023-05-11T06:38:55.174Z,100242.75
2023-05-11T06:41:22.780Z,100232.75
2023-05-11T06:43:49.535Z,100238.38
2023-05-11T06:46:18.143Z,100226.25
2023-05-11T06:48:44.935Z,100247.50
2023-05-11T06:51:12.062Z,100229.41
2023-05-11T06:53:38.873Z,100242.28
2023-05-11T06:56:05.749Z,100258.50
2023-05-11T06:58:32.477Z,100254.03
2023-05-11T07:00:59.171Z,100237.78
2023-05-11T07:03:26.309Z,100234.34
2023-05-11T07:05:52.981Z,100236.53
2023-05-11T07:08:19.641Z,100242.28
2023-05-11T07:10:46.353Z,100248.22
2023-05-11T07:13:13.067Z,100234.16
2023-05-11T07:15:39.748Z,100234.25
2023-05-11T07:18:06.499Z,100240.16
2023-05-11T07:20:33.143Z,100236.91
2023-05-11T07:22:59.927Z,100224.47
2023-05-11T07:25:26.619Z,100229.31
2023-05-11T07:27:53.367Z,100228.09
2023-05-11T07:30:20.514Z,100223.13
2023-05-11T07:32:47.509Z,100231.41
2023-05-11T07:35:15.431Z,100219.47
2023-05-11T07:37:42.382Z,100222.78
2023-05-11T07:40:09.337Z,100230.69
2023-05-11T07:42:36.026Z,100231.88
2023-05-11T07:45:02.783Z,100245.06
2023-05-11T07:47:29.592Z,100233.06
2023-05-11T07:49:56.292Z,100240.53
2023-05-11T07:52:23.042Z,100229.63
2023-05-11T07:54:49.871Z,100239.50
2023-05-11T07:57:16.651Z,100228.28
2023-05-11T07:59:43.376Z,100228.81
2023-05-11T08:02:11.588Z,100235.91
2023-05-11T08:04:39.796Z,100220.00
2023-05-11T08:07:06.546Z,100230.13
2023-05-11T08:09:33.250Z,100231.91
2023-05-11T08:12:01.852Z,100216.22
2023-05-11T08:14:28.731Z,100220.09
2023-05-11T08:16:55.728Z,100223.19
2023-05-11T08:19:22.443Z,100225.66
2023-05-11T08:21:49.153Z,100230.09
2023-05-11T08:24:15.953Z,100215.66
2023-05-11T08:26:43.061Z,100213.00
2023-05-11T08:29:11.286Z,100215.16
2023-05-11T08:31:38.331Z,100217.88
2023-05-11T08:34:13.725Z,100204.84
2023-05-11T08:36:45.011Z,100199.81
2023-05-11T08:39:11.720Z,100197.75
2023-05-11T08:41:38.502Z,100206.91
2023-05-11T08:44:05.279Z,100199.25
2023-05-11T08:46:34.726Z,100212.47
2023-05-11T08:49:01.711Z,100196.56
2023-05-11T08:51:28.638Z,100201.91
2023-05-11T08:53:57.987Z,100190.25
2023-05-11T08:56:25.994Z,100198.16
2023-05-11T08:58:56.068Z,100189.81
2023-05-11T09:01:23.787Z,100186.91
2023-05-11T09:03:51.041Z,100179.78
2023-05-11T09:06:18.432Z,100198.91
2023-05-11T09:08:46.066Z,100181.59
2023-05-11T09:11:13.160Z,100190.22
2023-05-11T09:13:40.020Z,100175.44
2023-05-11T09:16:13.831Z,100203.31
2023-05-11T09:18:51.317Z,100172.13
2023-05-11T09:21:18.622Z,100169.28
2023-05-11T09:23:45.363Z,100177.69
2023-05-11T09:26:20.291Z,100164.56
2023-05-11T09:29:02.409Z,100170.78
2023-05-11T09:31:36.828Z,100190.03
2023-05-11T09:34:10.542Z,100161.50
2023-05-11T09:36:37.400Z,100164.75
2023-05-11T09:39:04.335Z,100161.97
2023-05-11T09:41:34.686Z,100162.34
2023-05-11T09:44:11.163Z,100160.03
2023-05-11T09:46:38.531Z,100172.06
2023-05-11T09:49:06.555Z,100149.28
2023-05-11T09:51:34.625Z,100141.47
2023-05-11T09:54:04.391Z,100164.31
2023-05-11T09:56:42.905Z,100153.09
2023-05-11T09:59:09.662Z,100147.50
2023-05-11T10:01:38.230Z,100162.81
2023-05-11T10:04:22.347Z,100140.91
2023-05-11T10:06:53.711Z,100129.53
2023-05-11T10:09:24.583Z,100155.00
2023-05-11T10:11:51.522Z,100147.41
2023-05-11T10:14:19.444Z,100130.44
2023-05-11T10:16:47.115Z,100133.19
2023-05-11T10:19:14.257Z,100127.84
2023-05-11T10:21:41.322Z,100117.19
2023-05-11T10:24:08.391Z,100126.28
2023-05-11T10:26:35.392Z,100131.03
2023-05-11T10:29:02.273Z,100126.44
2023-05-11T10:31:29.632Z,100113.53
2023-05-11T10:33:57.491Z,100122.69
2023-05-11T10:36:25.111Z,100104.63
2023-05-11T10:38:51.831Z,100122.09
2023-05-11T10:41:33.932Z,100105.56
2023-05-11T10:44:00.658Z,100108.88
2023-05-11T10:46:36.268Z,100100.53
2023-05-11T10:49:18.786Z,100095.63
2023-05-11T10:52:04.449Z,100133.91
2023-05-11T10:54:42.134Z,100136.19
2023-05-11T10:57:13.760Z,100111.69
2023-05-11T10:59:45.706Z,100100.12
2023-05-11T11:02:12.503Z,100101.69
2023-05-11T11:04:46.838Z,100096.66
2023-05-11T11:07:17.543Z,100122.06
2023-05-11T11:09:54.699Z,100123.38
2023-05-11T11:12:21.693Z,100130.12
2023-05-11T11:15:00.729Z,100093.56
2023-05-11T11:17:35.001Z,100092.06
2023-05-11T11:20:04.599Z,100100.12
2023-05-11T11:22:41.815Z,100095.56
2023-05-11T11:25:09.898Z,100086.53
2023-05-11T11:27:46.208Z,100093.41
2023-05-11T11:30:20.432Z,100098.06
2023-05-11T11:33:07.196Z,100089.00
2023-05-11T11:35:40.176Z,100091.81
2023-05-11T11:38:10.622Z,100085.44
2023-05-11T11:40:50.473Z,100089.09
2023-05-11T11:43:25.572Z,100082.75
2023-05-11T11:46:02.182Z,100085.16
2023-05-11T11:48:37.989Z,100105.75
2023-05-11T11:51:05.966Z,100102.16
2023-05-11T11:53:41.001Z,100100.16
2023-05-11T11:56:09.288Z,100089.81
2023-05-11T11:58:42.643Z,100088.09
2023-05-11T12:01:10.363Z,100092.31
2023-05-11T12:03:37.557Z,100083.25
2023-05-11T12:06:08.297Z,100114.28
2023-05-11T12:08:35.934Z,100089.94
2023-05-11T12:11:03.467Z,100089.41
2023-05-11T12:13:30.682Z,100074.44
2023-05-11T12:16:09.872Z,100095.06
2023-05-11T12:18:36.821Z,100104.34
2023-05-11T12:21:03.757Z,100083.97
2023-05-11T12:23:30.829Z,100087.00
2023-05-11T12:26:01.598Z,100085.28
2023-05-11T12:28:28.413Z,100074.84
2023-05-11T12:30:57.697Z,100078.63
2023-05-11T12:33:25.855Z,100073.69
2023-05-11T12:35:56.988Z,100070.47
2023-05-11T12:38:23.786Z,100095.56
2023-05-11T12:40:51.483Z,100082.44
2023-05-11T12:43:19.036Z,100067.37
2023-05-11T12:45:46.513Z,100083.34
2023-05-11T12:48:13.664Z,100056.16
2023-05-11T12:50:44.632Z,100064.28
2023-05-11T12:53:17.784Z,100069.56
2023-05-11T12:55:44.729Z,100079.09
2023-05-11T12:58:15.428Z,100055.78
2023-05-11T13:00:55.408Z,100063.09
2023-05-11T13:03:25.672Z,100057.59
2023-05-11T13:05:54.434Z,100056.91
2023-05-11T13:08:21.400Z,100076.34
2023-05-11T13:10:48.378Z,100067.25
2023-05-11T13:13:28.171Z,100064.13
2023-05-11T13:15:55.390Z,100059.81
2023-05-11T13:18:23.441Z,100052.78
2023-05-11T13:21:04.452Z,100049.56
2023-05-11T13:23:32.101Z,100032.09
2023-05-11T13:25:58.876Z,100072.00
2023-05-11T13:28:25.644Z,100066.66
2023-05-11T13:30:58.488Z,100066.09
2023-05-11T13:33:25.288Z,100068.75
2023-05-11T13:35:51.951Z,100084.22
2023-05-11T13:38:18.705Z,100069.75
2023-05-11T13:40:45.468Z,100062.88
2023-05-11T13:43:12.187Z,100082.47
2023-05-11T13:45:41.494Z,100075.91
2023-05-11T13:48:08.834Z,100071.31
2023-05-11T13:50:35.573Z,100074.50
2023-05-11T13:53:02.331Z,100073.19
2023-05-11T13:55:29.653Z,100089.91
2023-05-11T13:57:57.001Z,100069.88
2023-05-11T14:00:23.859Z,100077.94
2023-05-11T14:02:51.988Z,100072.06
2023-05-11T14:05:19.101Z,100079.81
2023-05-11T14:07:47.693Z,100072.03
2023-05-11T14:10:16.098Z,100070.94
2023-05-11T14:12:42.925Z,100077.81
2023-05-11T14:15:09.982Z,100098.66
2023-05-11T14:17:37.280Z,100088.66
2023-05-11T14:20:05.441Z,100095.53
2023-05-11T14:22:32.169Z,100091.53
2023-05-11T14:24:59.018Z,100090.88
2023-05-11T14:27:25.786Z,100090.50
2023-05-11T14:29:52.701Z,100091.69
2023-05-11T14:32:19.845Z,100110.00
2023-05-11T14:34:46.978Z,100117.59
2023-05-11T14:37:13.803Z,100119.53
2023-05-11T14:39:41.222Z,100131.16
2023-05-11T14:42:08.247Z,100121.91
2023-05-11T14:44:35.078Z,100125.84
2023-05-11T14:47:01.932Z,100128.75
2023-05-11T14:49:28.969Z,100126.62
2023-05-11T14:51:56.873Z,100129.50
2023-05-11T14:54:23.642Z,100134.12
2023-05-11T14:56:54.082Z,100140.06
2023-05-11T14:59:21.568Z,100136.16
2023-05-11T15:01:48.370Z,100139.16
2023-05-11T15:04:15.880Z,100141.94
2023-05-11T15:06:43.454Z,100147.03
2023-05-11T15:09:10.193Z,100130.31
2023-05-11T15:11:39.581Z,100139.66
2023-05-11T15:14:09.564Z,100135.09
2023-05-11T15:16:37.196Z,100140.19
2023-05-11T15:19:04.693Z,100144.59
2023-05-11T15:21:32.360Z,100155.13
2023-05-11T15:23:59.433Z,100141.44
2023-05-11T15:26:26.233Z,100144.19
2023-05-11T15:28:52.918Z,100149.59
2023-05-11T15:31:19.817Z,100147.44
2023-05-11T15:33:46.548Z,100154.75
2023-05-11T15:36:14.044Z,100163.50
2023-05-11T15:38:41.268Z,100168.50
2023-05-11T15:41:08.016Z,100167.62
2023-05-11T15:43:35.214Z,100169.31
2023-05-11T15:46:04.101Z,100165.16
2023-05-11T15:48:30.979Z,100168.56
2023-05-11T15:50:59.288Z,100174.72
2023-05-11T15:53:26.001Z,100180.84
2023-05-11T15:55:55.607Z,100182.16
2023-05-11T15:58:22.531Z,100170.91
2023-05-11T16:00:49.962Z,100182.47
2023-05-11T16:03:17.192Z,100187.97
2023-05-11T16:05:44.933Z,100186.94
2023-05-11T16:08:11.733Z,100186.53
2023-05-11T16:10:38.635Z,100200.31
2023-05-11T16:13:05.610Z,100191.56
2023-05-11T16:15:32.488Z,100176.91
2023-05-11T16:18:00.069Z,100178.66
2023-05-11T16:20:28.858Z,100197.69
2023-05-11T16:22:55.652Z,100196.84
2023-05-11T16:25:23.242Z,100193.00
2023-05-11T16:27:49.953Z,100187.28
2023-05-11T16:30:24.374Z,100188.25
2023-05-11T16:32:52.315Z,100187.84
2023-05-11T16:35:19.124Z,100189.28
2023-05-11T16:37:46.861Z,100195.66
2023-05-11T16:40:13.639Z,100186.72
2023-05-11T16:42:40.378Z,100192.44
2023-05-11T16:45:07.454Z,100182.91
2023-05-11T16:47:34.289Z,100192.19
2023-05-11T16:50:01.197Z,100189.22
2023-05-11T16:52:27.875Z,100185.09
2023-05-11T16:54:55.747Z,100192.06
2023-05-11T16:57:25.349Z,100183.88
2023-05-11T16:59:52.117Z,100183.34
2023-05-11T17:02:20.056Z,100182.50
2023-05-11T17:04:46.785Z,100186.66
2023-05-11T17:07:15.030Z,100173.59
2023-05-11T17:09:41.952Z,100178.91
2023-05-11T17:12:11.958Z,100171.50
2023-05-11T17:14:38.623Z,100174.84
2023-05-11T17:17:07.070Z,100179.13
2023-05-11T17:19:34.690Z,100169.78
2023-05-11T17:22:01.456Z,100174.25
2023-05-11T17:24:28.735Z,100187.31
2023-05-11T17:26:55.511Z,100185.28
2023-05-11T17:29:22.534Z,100193.19
2023-05-11T17:31:51.687Z,100177.47
2023-05-11T17:34:19.321Z,100182.25
2023-05-11T17:36:46.360Z,100183.00
2023-05-11T17:39:13.067Z,100165.84
2023-05-11T17:41:39.757Z,100182.69
2023-05-11T17:44:06.377Z,100169.47
2023-05-11T17:46:33.053Z,100177.09
2023-05-11T17:48:59.754Z,100174.34
2023-05-11T17:51:26.379Z,100170.38
2023-05-11T17:53:53.057Z,100179.13
2023-05-11T17:56:19.805Z,100169.88
2023-05-11T17:58:46.500Z,100165.84
2023-05-11T18:01:16.811Z,100170.00
2023-05-11T18:03:43.648Z,100172.56
2023-05-11T18:06:10.507Z,100172.72
2023-05-11T18:08:37.185Z,100180.31
2023-05-11T18:11:03.971Z,100209.03
2023-05-11T18:13:31.751Z,100180.66
2023-05-11T18:16:01.506Z,100174.31
2023-05-11T18:18:28.261Z,100183.94
2023-05-11T18:20:55.116Z,100186.69
2023-05-11T18:23:21.869Z,100184.56
2023-05-11T18:25:48.771Z,100184.75
2023-05-11T18:28:15.442Z,100189.37
2023-05-11T18:30:42.178Z,100192.41
2023-05-11T18:33:08.994Z,100195.97
2023-05-11T18:35:36.259Z,100199.50
2023-05-11T18:38:04.923Z,100214.97
2023-05-11T18:40:31.637Z,100206.25
2023-05-11T18:42:58.309Z,100202.81
2023-05-11T18:45:25.195Z,100202.81
2023-05-11T18:47:52.132Z,100228.91
2023-05-11T18:50:18.990Z,100223.19
2023-05-11T18:52:45.751Z,100217.47
2023-05-11T18:55:12.425Z,100211.56
2023-05-11T18:57:40.309Z,100223.13
2023-05-11T19:00:07.424Z,100215.88
2023-05-11T19:02:34.265Z,100220.41
2023-05-11T19:05:01.412Z,100227.06
2023-05-11T19:07:28.715Z,100217.16
2023-05-11T19:09:55.595Z,100211.19
2023-05-11T19:12:22.485Z,100225.72
2023-05-11T19:14:49.177Z,100237.03
2023-05-11T19:17:15.990Z,100225.69
2023-05-11T19:19:42.662Z,100218.66
2023-05-11T19:22:09.544Z,100220.19
2023-05-11T19:24:36.291Z,100209.34
2023-05-11T19:27:07.834Z,100219.69
2023-05-11T19:29:35.546Z,100219.78
2023-05-11T19:32:02.563Z,100210.16
2023-05-11T19:34:29.374Z,100205.91
2023-05-11T19:36:56.080Z,100211.97
2023-05-11T19:39:22.709Z,100212.66
2023-05-11T19:41:49.602Z,100221.38
2023-05-11T19:44:16.300Z,100230.09
2023-05-11T19:46:47.013Z,100212.88
2023-05-11T19:49:15.318Z,100221.38
2023-05-11T19:51:42.699Z,100223.69
2023-05-11T19:54:09.802Z,100228.56
2023-05-11T19:56:36.456Z,100218.28
2023-05-11T19:59:04.006Z,100228.47
2023-05-11T20:01:30.656Z,100218.97
2023-05-11T20:03:57.683Z,100215.47
2023-05-11T20:06:25.571Z,100223.13
2023-05-11T20:08:53.161Z,100218.47
2023-05-11T20:11:20.325Z,100224.59
2023-05-11T20:13:47.973Z,100237.22
2023-05-11T20:16:14.858Z,100223.78
2023-05-11T20:18:41.827Z,100223.87
2023-05-11T20:21:08.499Z,100223.13
2023-05-11T20:23:37.204Z,100222.91
2023-05-11T20:26:04.432Z,100218.84
2023-05-11T20:28:31.202Z,100220.66
2023-05-11T20:30:57.863Z,100210.50
2023-05-11T20:35:55.203Z,100233.72
2023-05-11T20:38:22.417Z,100235.47
2023-05-11T20:40:49.162Z,100217.03
2023-05-11T20:43:16.455Z,100214.03
2023-05-11T20:45:43.900Z,100216.53
2023-05-11T20:48:11.009Z,100213.00
2023-05-11T20:50:39.397Z,100212.28
2023-05-11T20:53:06.250Z,100216.16
2023-05-11T20:55:33.025Z,100214.84
2023-05-11T20:57:59.777Z,100220.56
2023-05-11T21:00:26.535Z,100219.69
2023-05-11T21:02:53.230Z,100218.28
2023-05-11T21:05:20.040Z,100222.41
2023-05-11T21:07:46.764Z,100207.59
2023-05-11T21:10:13.521Z,100219.22
2023-05-11T21:12:40.134Z,100208.28
2023-05-11T21:15:07.429Z,100221.59
2023-05-11T21:17:34.625Z,100215.72
2023-05-11T21:20:02.380Z,100210.00
2023-05-11T21:22:29.200Z,100206.75
2023-05-11T21:24:55.850Z,100199.94
2023-05-11T21:27:22.511Z,100206.59
2023-05-11T21:29:49.381Z,100209.97
2023-05-11T21:32:16.314Z,100207.78
2023-05-11T21:34:43.504Z,100201.62
2023-05-11T21:37:10.151Z,100206.87
2023-05-11T21:39:36.755Z,100224.06
2023-05-11T21:42:03.511Z,100201.59
2023-05-11T21:44:30.176Z,100206.84
2023-05-11T21:46:57.133Z,100215.34
2023-05-11T21:49:23.798Z,100203.22
2023-05-11T21:51:50.711Z,100212.66
2023-05-11T21:54:22.228Z,100203.59
2023-05-11T21:56:49.536Z,100201.69
2023-05-11T21:59:20.095Z,100217.06
2023-05-11T22:01:48.157Z,100209.44
2023-05-11T22:04:15.038Z,100197.78
2023-05-11T22:06:41.906Z,100200.53
2023-05-11T22:09:08.540Z,100205.03
2023-05-11T22:11:38.194Z,100207.78
2023-05-11T22:14:04.863Z,100199.97
2023-05-11T22:16:31.772Z,100196.53
2023-05-11T22:18:58.473Z,100204.25
2023-05-11T22:21:27.526Z,100198.09
2023-05-11T22:23:54.198Z,100211.28
2023-05-11T22:26:20.856Z,100204.09
2023-05-11T22:28:47.897Z,100203.72
2023-05-11T22:31:14.590Z,100205.47
2023-05-11T22:33:41.402Z,100200.28
2023-05-11T22:36:08.577Z,100197.47
2023-05-11T22:38:37.680Z,100200.38
2023-05-11T22:41:04.895Z,100190.22
2023-05-11T22:43:32.034Z,100204.13
2023-05-11T22:45:58.767Z,100198.69
2023-05-11T22:48:25.599Z,100195.59
2023-05-11T22:50:52.254Z,100209.78
2023-05-11T22:53:20.067Z,100205.34
2023-05-11T22:55:46.800Z,100198.12
2023-05-11T22:58:13.540Z,100196.16
2023-05-11T23:00:40.200Z,100204.13
2023-05-11T23:03:06.982Z,100207.94
2023-05-11T23:05:33.895Z,100201.78
2023-05-11T23:08:00.658Z,100199.81
2023-05-11T23:10:27.599Z,100192.87
2023-05-11T23:12:54.509Z,100199.97
2023-05-11T23:15:21.306Z,100197.59
2023-05-11T23:17:48.047Z,100198.72
2023-05-11T23:20:15.014Z,100192.56
2023-05-11T23:22:41.872Z,100189.44
2023-05-11T23:25:08.836Z,100192.47
2023-05-11T23:27:35.438Z,100183.06
2023-05-11T23:30:02.113Z,100195.91
2023-05-11T23:32:28.796Z,100190.56
2023-05-11T23:34:55.593Z,100191.88
2023-05-11T23:37:22.500Z,100186.28
2023-05-11T23:39:49.164Z,100186.78
2023-05-11T23:42:15.938Z,100173.41
2023-05-11T23:44:42.584Z,100177.34
2023-05-11T23:47:09.321Z,100184.47
2023-05-11T23:49:36.180Z,100184.09
2023-05-11T23:52:02.808Z,100167.75
2023-05-11T23:54:29.464Z,100182.66
2023-05-11T23:56:56.172Z,100175.75
2023-05-11T23:59:22.799Z,100166.19
